sensor_id;sensor_type;location;lat;lon;timestamp;P1;durP1;ratioP1;P2;durP2;ratioP2
14686;SDS011;7431;49.440;11.084;2024-02-28T00:00:28;22.20;;;11.07;;
14686;SDS011;7431;49.440;11.084;2024-02-28T00:02:54;20.37;;;10.97;;
14686;SDS011;7431;49.440;11.084;2024-02-28T00:05:20;20.10;;;11.10;;
14686;SDS011;7431;49.440;11.084;2024-02-28T00:07:46;16.77;;;10.10;;
14686;SDS011;7431;49.440;11.084;2024-02-28T00:10:13;18.27;;;10.50;;
14686;SDS011;7431;49.440;11.084;2024-02-28T00:12:39;16.97;;;9.33;;
14686;SDS011;7431;49.440;11.084;2024-02-28T00:15:05;23.03;;;10.80;;
14686;SDS011;7431;49.440;11.084;2024-02-28T00:17:37;18.23;;;10.03;;
14686;SDS011;7431;49.440;11.084;2024-02-28T00:20:05;16.20;;;9.43;;
14686;SDS011;7431;49.440;11.084;2024-02-28T00:22:31;17.67;;;9.93;;
14686;SDS011;7431;49.440;11.084;2024-02-28T00:24:57;19.83;;;11.10;;
14686;SDS011;7431;49.440;11.084;2024-02-28T00:27:23;22.97;;;12.33;;
14686;SDS011;7431;49.440;11.084;2024-02-28T00:29:48;17.87;;;10.07;;
14686;SDS011;7431;49.440;11.084;2024-02-28T00:32:14;18.40;;;10.23;;
14686;SDS011;7431;49.440;11.084;2024-02-28T00:34:40;20.50;;;11.70;;
14686;SDS011;7431;49.440;11.084;2024-02-28T00:37:06;15.97;;;9.97;;
14686;SDS011;7431;49.440;11.084;2024-02-28T00:39:32;17.60;;;10.23;;
14686;SDS011;7431;49.440;11.084;2024-02-28T00:41:58;20.30;;;10.70;;
14686;SDS011;7431;49.440;11.084;2024-02-28T00:44:24;14.97;;;9.80;;
14686;SDS011;7431;49.440;11.084;2024-02-28T00:46:50;16.77;;;10.03;;
14686;SDS011;7431;49.440;11.084;2024-02-28T00:49:16;17.90;;;9.57;;
14686;SDS011;7431;49.440;11.084;2024-02-28T00:51:42;21.87;;;11.27;;
14686;SDS011;7431;49.440;11.084;2024-02-28T00:54:08;18.50;;;10.63;;
14686;SDS011;7431;49.440;11.084;2024-02-28T00:56:34;19.23;;;8.47;;
14686;SDS011;7431;49.440;11.084;2024-02-28T00:59:00;18.37;;;9.97;;
14686;SDS011;7431;49.440;11.084;2024-02-28T01:01:26;18.07;;;10.53;;
14686;SDS011;7431;49.440;11.084;2024-02-28T01:03:52;17.97;;;9.60;;
14686;SDS011;7431;49.440;11.084;2024-02-28T01:06:18;21.13;;;11.30;;
14686;SDS011;7431;49.440;11.084;2024-02-28T01:08:44;21.03;;;10.47;;
14686;SDS011;7431;49.440;11.084;2024-02-28T01:11:10;18.30;;;10.77;;
14686;SDS011;7431;49.440;11.084;2024-02-28T01:13:36;20.40;;;10.53;;
14686;SDS011;7431;49.440;11.084;2024-02-28T01:16:02;21.43;;;10.63;;
14686;SDS011;7431;49.440;11.084;2024-02-28T01:18:28;18.30;;;9.93;;
14686;SDS011;7431;49.440;11.084;2024-02-28T01:20:55;21.83;;;11.80;;
14686;SDS011;7431;49.440;11.084;2024-02-28T01:23:21;18.63;;;11.90;;
14686;SDS011;7431;49.440;11.084;2024-02-28T01:25:47;18.37;;;10.63;;
14686;SDS011;7431;49.440;11.084;2024-02-28T01:28:13;16.40;;;9.80;;
14686;SDS011;7431;49.440;11.084;2024-02-28T01:30:39;16.30;;;10.43;;
14686;SDS011;7431;49.440;11.084;2024-02-28T01:33:05;17.60;;;10.17;;
14686;SDS011;7431;49.440;11.084;2024-02-28T01:35:31;19.03;;;11.60;;
14686;SDS011;7431;49.440;11.084;2024-02-28T01:37:57;17.70;;;10.63;;
14686;SDS011;7431;49.440;11.084;2024-02-28T01:40:23;15.83;;;8.23;;
14686;SDS011;7431;49.440;11.084;2024-02-28T01:42:49;15.93;;;10.23;;
14686;SDS011;7431;49.440;11.084;2024-02-28T01:45:15;15.93;;;10.23;;
14686;SDS011;7431;49.440;11.084;2024-02-28T01:47:42;18.63;;;9.73;;
14686;SDS011;7431;49.440;11.084;2024-02-28T01:50:09;19.00;;;10.37;;
14686;SDS011;7431;49.440;11.084;2024-02-28T01:52:35;16.60;;;10.87;;
14686;SDS011;7431;49.440;11.084;2024-02-28T01:55:02;21.10;;;11.03;;
14686;SDS011;7431;49.440;11.084;2024-02-28T01:57:28;16.47;;;10.63;;
14686;SDS011;7431;49.440;11.084;2024-02-28T01:59:54;18.53;;;11.13;;
14686;SDS011;7431;49.440;11.084;2024-02-28T02:02:21;21.30;;;10.67;;
14686;SDS011;7431;49.440;11.084;2024-02-28T02:04:47;19.33;;;11.53;;
14686;SDS011;7431;49.440;11.084;2024-02-28T02:07:13;20.37;;;11.87;;
14686;SDS011;7431;49.440;11.084;2024-02-28T02:09:39;15.10;;;10.23;;
14686;SDS011;7431;49.440;11.084;2024-02-28T02:12:05;19.20;;;10.00;;
14686;SDS011;7431;49.440;11.084;2024-02-28T02:14:31;12.47;;;7.70;;
14686;SDS011;7431;49.440;11.084;2024-02-28T02:16:57;11.10;;;7.83;;
14686;SDS011;7431;49.440;11.084;2024-02-28T02:19:23;17.70;;;9.53;;
14686;SDS011;7431;49.440;11.084;2024-02-28T02:21:49;21.93;;;9.97;;
14686;SDS011;7431;49.440;11.084;2024-02-28T02:24:18;18.23;;;9.43;;
14686;SDS011;7431;49.440;11.084;2024-02-28T02:26:44;18.73;;;10.57;;
14686;SDS011;7431;49.440;11.084;2024-02-28T02:29:11;18.43;;;11.43;;
14686;SDS011;7431;49.440;11.084;2024-02-28T02:31:37;21.10;;;11.63;;
14686;SDS011;7431;49.440;11.084;2024-02-28T02:34:03;21.97;;;11.27;;
14686;SDS011;7431;49.440;11.084;2024-02-28T02:36:29;19.00;;;10.57;;
14686;SDS011;7431;49.440;11.084;2024-02-28T02:38:55;16.87;;;10.93;;
14686;SDS011;7431;49.440;11.084;2024-02-28T02:41:22;19.43;;;11.43;;
14686;SDS011;7431;49.440;11.084;2024-02-28T02:43:48;17.83;;;10.33;;
14686;SDS011;7431;49.440;11.084;2024-02-28T02:46:14;19.80;;;11.17;;
14686;SDS011;7431;49.440;11.084;2024-02-28T02:48:40;17.70;;;10.50;;
14686;SDS011;7431;49.440;11.084;2024-02-28T02:51:06;20.10;;;11.33;;
14686;SDS011;7431;49.440;11.084;2024-02-28T02:53:32;18.47;;;10.83;;
14686;SDS011;7431;49.440;11.084;2024-02-28T02:55:58;16.47;;;10.00;;
14686;SDS011;7431;49.440;11.084;2024-02-28T02:58:24;19.50;;;10.87;;
14686;SDS011;7431;49.440;11.084;2024-02-28T03:00:50;18.80;;;11.00;;
14686;SDS011;7431;49.440;11.084;2024-02-28T03:03:16;18.63;;;11.10;;
14686;SDS011;7431;49.440;11.084;2024-02-28T03:05:42;16.67;;;11.00;;
14686;SDS011;7431;49.440;11.084;2024-02-28T03:08:08;17.30;;;9.77;;
14686;SDS011;7431;49.440;11.084;2024-02-28T03:10:34;17.70;;;9.53;;
14686;SDS011;7431;49.440;11.084;2024-02-28T03:13:00;20.60;;;10.57;;
14686;SDS011;7431;49.440;11.084;2024-02-28T03:15:26;16.47;;;9.93;;
14686;SDS011;7431;49.440;11.084;2024-02-28T03:17:52;16.50;;;9.10;;
14686;SDS011;7431;49.440;11.084;2024-02-28T03:20:18;16.93;;;10.90;;
14686;SDS011;7431;49.440;11.084;2024-02-28T03:22:44;16.67;;;10.50;;
14686;SDS011;7431;49.440;11.084;2024-02-28T03:25:10;19.73;;;11.07;;
14686;SDS011;7431;49.440;11.084;2024-02-28T03:27:36;18.63;;;10.40;;
14686;SDS011;7431;49.440;11.084;2024-02-28T03:30:02;17.17;;;10.37;;
14686;SDS011;7431;49.440;11.084;2024-02-28T03:32:28;22.10;;;10.93;;
14686;SDS011;7431;49.440;11.084;2024-02-28T03:34:54;17.83;;;11.33;;
14686;SDS011;7431;49.440;11.084;2024-02-28T03:37:20;18.03;;;11.30;;
14686;SDS011;7431;49.440;11.084;2024-02-28T03:39:46;18.77;;;10.97;;
14686;SDS011;7431;49.440;11.084;2024-02-28T03:42:12;17.43;;;10.67;;
14686;SDS011;7431;49.440;11.084;2024-02-28T03:44:38;17.13;;;10.13;;
14686;SDS011;7431;49.440;11.084;2024-02-28T03:47:04;18.43;;;11.63;;
14686;SDS011;7431;49.440;11.084;2024-02-28T03:49:30;19.60;;;10.87;;
14686;SDS011;7431;49.440;11.084;2024-02-28T03:51:56;19.07;;;11.33;;
14686;SDS011;7431;49.440;11.084;2024-02-28T03:54:22;17.67;;;10.93;;
14686;SDS011;7431;49.440;11.084;2024-02-28T03:56:48;17.40;;;10.20;;
14686;SDS011;7431;49.440;11.084;2024-02-28T03:59:14;19.03;;;11.67;;
14686;SDS011;7431;49.440;11.084;2024-02-28T04:01:40;18.43;;;10.90;;
14686;SDS011;7431;49.440;11.084;2024-02-28T04:04:06;21.03;;;12.47;;
14686;SDS011;7431;49.440;11.084;2024-02-28T04:06:32;18.40;;;11.20;;
14686;SDS011;7431;49.440;11.084;2024-02-28T04:08:58;17.97;;;11.33;;
14686;SDS011;7431;49.440;11.084;2024-02-28T04:11:24;16.17;;;10.57;;
14686;SDS011;7431;49.440;11.084;2024-02-28T04:13:50;18.53;;;11.00;;
14686;SDS011;7431;49.440;11.084;2024-02-28T04:16:16;17.47;;;11.30;;
14686;SDS011;7431;49.440;11.084;2024-02-28T04:18:42;19.23;;;10.83;;
14686;SDS011;7431;49.440;11.084;2024-02-28T04:21:08;16.63;;;10.53;;
14686;SDS011;7431;49.440;11.084;2024-02-28T04:23:34;16.00;;;9.90;;
14686;SDS011;7431;49.440;11.084;2024-02-28T04:26:00;16.33;;;10.03;;
14686;SDS011;7431;49.440;11.084;2024-02-28T04:28:26;14.83;;;9.47;;
14686;SDS011;7431;49.440;11.084;2024-02-28T04:30:52;17.73;;;11.30;;
14686;SDS011;7431;49.440;11.084;2024-02-28T04:33:18;16.77;;;9.90;;
14686;SDS011;7431;49.440;11.084;2024-02-28T04:35:44;20.13;;;10.40;;
14686;SDS011;7431;49.440;11.084;2024-02-28T04:38:11;15.70;;;8.83;;
14686;SDS011;7431;49.440;11.084;2024-02-28T04:40:37;14.33;;;8.57;;
14686;SDS011;7431;49.440;11.084;2024-02-28T04:43:03;16.30;;;9.03;;
14686;SDS011;7431;49.440;11.084;2024-02-28T04:45:29;16.77;;;9.90;;
14686;SDS011;7431;49.440;11.084;2024-02-28T04:47:55;15.90;;;9.53;;
14686;SDS011;7431;49.440;11.084;2024-02-28T04:50:22;14.90;;;9.37;;
14686;SDS011;7431;49.440;11.084;2024-02-28T04:52:48;16.37;;;9.47;;
14686;SDS011;7431;49.440;11.084;2024-02-28T04:55:14;16.50;;;10.17;;
14686;SDS011;7431;49.440;11.084;2024-02-28T04:57:40;18.43;;;9.17;;
14686;SDS011;7431;49.440;11.084;2024-02-28T05:00:06;13.13;;;8.80;;
14686;SDS011;7431;49.440;11.084;2024-02-28T05:02:35;14.90;;;8.73;;
14686;SDS011;7431;49.440;11.084;2024-02-28T05:05:01;18.83;;;9.20;;
14686;SDS011;7431;49.440;11.084;2024-02-28T05:07:27;14.83;;;8.37;;
14686;SDS011;7431;49.440;11.084;2024-02-28T05:09:53;14.33;;;9.20;;
14686;SDS011;7431;49.440;11.084;2024-02-28T05:12:19;11.93;;;8.73;;
14686;SDS011;7431;49.440;11.084;2024-02-28T05:14:45;13.93;;;8.30;;
14686;SDS011;7431;49.440;11.084;2024-02-28T05:17:14;14.87;;;8.93;;
14686;SDS011;7431;49.440;11.084;2024-02-28T05:19:41;15.97;;;9.00;;
14686;SDS011;7431;49.440;11.084;2024-02-28T05:22:10;13.20;;;8.97;;
14686;SDS011;7431;49.440;11.084;2024-02-28T05:24:40;15.87;;;9.27;;
14686;SDS011;7431;49.440;11.084;2024-02-28T05:27:08;14.17;;;9.50;;
14686;SDS011;7431;49.440;11.084;2024-02-28T05:29:37;13.73;;;8.60;;
14686;SDS011;7431;49.440;11.084;2024-02-28T05:32:03;14.13;;;9.27;;
14686;SDS011;7431;49.440;11.084;2024-02-28T05:34:29;13.70;;;9.20;;
14686;SDS011;7431;49.440;11.084;2024-02-28T05:36:55;13.87;;;8.70;;
14686;SDS011;7431;49.440;11.084;2024-02-28T05:39:21;15.83;;;9.03;;
14686;SDS011;7431;49.440;11.084;2024-02-28T05:41:47;16.27;;;9.93;;
14686;SDS011;7431;49.440;11.084;2024-02-28T05:44:13;13.90;;;8.87;;
14686;SDS011;7431;49.440;11.084;2024-02-28T05:46:39;13.47;;;8.77;;
14686;SDS011;7431;49.440;11.084;2024-02-28T05:49:05;14.23;;;8.20;;
14686;SDS011;7431;49.440;11.084;2024-02-28T05:51:32;13.33;;;7.87;;
14686;SDS011;7431;49.440;11.084;2024-02-28T05:53:58;12.50;;;8.07;;
14686;SDS011;7431;49.440;11.084;2024-02-28T05:56:24;12.00;;;7.10;;
14686;SDS011;7431;49.440;11.084;2024-02-28T05:58:50;13.07;;;8.10;;
14686;SDS011;7431;49.440;11.084;2024-02-28T06:01:16;12.57;;;8.13;;
14686;SDS011;7431;49.440;11.084;2024-02-28T06:03:45;14.23;;;8.33;;
14686;SDS011;7431;49.440;11.084;2024-02-28T06:06:11;14.30;;;8.10;;
14686;SDS011;7431;49.440;11.084;2024-02-28T06:08:38;15.00;;;8.30;;
14686;SDS011;7431;49.440;11.084;2024-02-28T06:11:04;13.10;;;7.93;;
14686;SDS011;7431;49.440;11.084;2024-02-28T06:13:30;14.30;;;8.13;;
14686;SDS011;7431;49.440;11.084;2024-02-28T06:15:56;12.70;;;8.20;;
14686;SDS011;7431;49.440;11.084;2024-02-28T06:18:23;11.33;;;6.77;;
14686;SDS011;7431;49.440;11.084;2024-02-28T06:20:51;10.97;;;7.03;;
14686;SDS011;7431;49.440;11.084;2024-02-28T06:23:18;12.23;;;7.73;;
14686;SDS011;7431;49.440;11.084;2024-02-28T06:25:44;12.37;;;7.93;;
14686;SDS011;7431;49.440;11.084;2024-02-28T06:28:09;11.20;;;7.00;;
14686;SDS011;7431;49.440;11.084;2024-02-28T06:30:35;11.03;;;7.33;;
14686;SDS011;7431;49.440;11.084;2024-02-28T06:33:01;9.67;;;6.63;;
14686;SDS011;7431;49.440;11.084;2024-02-28T06:35:29;12.30;;;7.27;;
14686;SDS011;7431;49.440;11.084;2024-02-28T06:37:55;10.03;;;6.50;;
14686;SDS011;7431;49.440;11.084;2024-02-28T06:40:21;10.87;;;6.80;;
14686;SDS011;7431;49.440;11.084;2024-02-28T06:42:47;9.60;;;6.47;;
14686;SDS011;7431;49.440;11.084;2024-02-28T06:45:13;12.33;;;7.63;;
14686;SDS011;7431;49.440;11.084;2024-02-28T06:47:39;12.60;;;7.33;;
14686;SDS011;7431;49.440;11.084;2024-02-28T06:50:06;15.40;;;8.30;;
14686;SDS011;7431;49.440;11.084;2024-02-28T06:52:32;13.20;;;8.03;;
14686;SDS011;7431;49.440;11.084;2024-02-28T06:54:58;14.20;;;7.53;;
14686;SDS011;7431;49.440;11.084;2024-02-28T06:57:25;13.23;;;8.00;;
14686;SDS011;7431;49.440;11.084;2024-02-28T06:59:51;12.10;;;7.23;;
14686;SDS011;7431;49.440;11.084;2024-02-28T07:02:17;14.23;;;8.67;;
14686;SDS011;7431;49.440;11.084;2024-02-28T07:04:43;12.33;;;7.07;;
14686;SDS011;7431;49.440;11.084;2024-02-28T07:07:09;15.13;;;8.63;;
14686;SDS011;7431;49.440;11.084;2024-02-28T07:09:37;14.47;;;9.23;;
14686;SDS011;7431;49.440;11.084;2024-02-28T07:12:03;13.50;;;7.77;;
14686;SDS011;7431;49.440;11.084;2024-02-28T07:14:29;12.73;;;8.37;;
14686;SDS011;7431;49.440;11.084;2024-02-28T07:16:55;12.37;;;7.70;;
14686;SDS011;7431;49.440;11.084;2024-02-28T07:19:21;14.20;;;8.50;;
14686;SDS011;7431;49.440;11.084;2024-02-28T07:21:47;14.47;;;8.33;;
14686;SDS011;7431;49.440;11.084;2024-02-28T07:24:13;14.80;;;8.03;;
14686;SDS011;7431;49.440;11.084;2024-02-28T07:26:39;11.57;;;8.40;;
14686;SDS011;7431;49.440;11.084;2024-02-28T07:29:06;15.53;;;8.63;;
14686;SDS011;7431;49.440;11.084;2024-02-28T07:31:32;16.37;;;8.43;;
14686;SDS011;7431;49.440;11.084;2024-02-28T07:33:58;12.70;;;8.17;;
14686;SDS011;7431;49.440;11.084;2024-02-28T07:36:24;12.80;;;8.50;;
14686;SDS011;7431;49.440;11.084;2024-02-28T07:38:50;11.90;;;8.10;;
14686;SDS011;7431;49.440;11.084;2024-02-28T07:41:17;12.73;;;9.40;;
14686;SDS011;7431;49.440;11.084;2024-02-28T07:43:43;15.93;;;8.87;;
14686;SDS011;7431;49.440;11.084;2024-02-28T07:46:09;14.87;;;8.73;;
14686;SDS011;7431;49.440;11.084;2024-02-28T07:48:36;12.57;;;8.37;;
14686;SDS011;7431;49.440;11.084;2024-02-28T07:51:06;15.33;;;8.53;;
14686;SDS011;7431;49.440;11.084;2024-02-28T07:53:32;14.93;;;8.43;;
14686;SDS011;7431;49.440;11.084;2024-02-28T07:55:58;15.87;;;9.37;;
14686;SDS011;7431;49.440;11.084;2024-02-28T07:58:24;13.37;;;8.50;;
14686;SDS011;7431;49.440;11.084;2024-02-28T08:00:50;14.13;;;8.73;;
14686;SDS011;7431;49.440;11.084;2024-02-28T08:03:17;17.60;;;9.23;;
14686;SDS011;7431;49.440;11.084;2024-02-28T08:05:43;13.90;;;8.10;;
14686;SDS011;7431;49.440;11.084;2024-02-28T08:08:09;13.10;;;8.70;;
14686;SDS011;7431;49.440;11.084;2024-02-28T08:10:37;13.03;;;7.47;;
14686;SDS011;7431;49.440;11.084;2024-02-28T08:13:03;13.33;;;8.63;;
14686;SDS011;7431;49.440;11.084;2024-02-28T08:15:29;14.63;;;8.20;;
14686;SDS011;7431;49.440;11.084;2024-02-28T08:17:55;13.20;;;7.80;;
14686;SDS011;7431;49.440;11.084;2024-02-28T08:20:21;12.17;;;7.77;;
14686;SDS011;7431;49.440;11.084;2024-02-28T08:22:47;14.40;;;8.87;;
14686;SDS011;7431;49.440;11.084;2024-02-28T08:25:13;12.63;;;8.60;;
14686;SDS011;7431;49.440;11.084;2024-02-28T08:27:39;15.20;;;9.23;;
14686;SDS011;7431;49.440;11.084;2024-02-28T08:30:06;15.47;;;9.70;;
14686;SDS011;7431;49.440;11.084;2024-02-28T08:32:32;12.97;;;8.70;;
14686;SDS011;7431;49.440;11.084;2024-02-28T08:34:58;12.13;;;8.70;;
14686;SDS011;7431;49.440;11.084;2024-02-28T08:37:24;13.90;;;9.33;;
14686;SDS011;7431;49.440;11.084;2024-02-28T08:39:52;11.83;;;8.90;;
14686;SDS011;7431;49.440;11.084;2024-02-28T08:42:21;16.07;;;8.83;;
14686;SDS011;7431;49.440;11.084;2024-02-28T08:44:47;16.90;;;9.57;;
14686;SDS011;7431;49.440;11.084;2024-02-28T08:47:13;13.47;;;9.03;;
14686;SDS011;7431;49.440;11.084;2024-02-28T08:49:39;14.90;;;8.67;;
14686;SDS011;7431;49.440;11.084;2024-02-28T08:52:05;19.93;;;8.83;;
14686;SDS011;7431;49.440;11.084;2024-02-28T08:54:32;15.20;;;9.20;;
14686;SDS011;7431;49.440;11.084;2024-02-28T08:56:58;13.80;;;8.97;;
14686;SDS011;7431;49.440;11.084;2024-02-28T08:59:24;12.80;;;9.43;;
14686;SDS011;7431;49.440;11.084;2024-02-28T09:01:50;17.03;;;9.20;;
14686;SDS011;7431;49.440;11.084;2024-02-28T09:04:16;15.70;;;8.77;;
14686;SDS011;7431;49.440;11.084;2024-02-28T09:06:42;13.77;;;9.20;;
14686;SDS011;7431;49.440;11.084;2024-02-28T09:09:08;11.33;;;8.33;;
14686;SDS011;7431;49.440;11.084;2024-02-28T09:11:34;13.10;;;9.10;;
14686;SDS011;7431;49.440;11.084;2024-02-28T09:14:00;12.60;;;8.03;;
14686;SDS011;7431;49.440;11.084;2024-02-28T09:16:26;12.63;;;8.40;;
14686;SDS011;7431;49.440;11.084;2024-02-28T09:18:53;14.37;;;9.40;;
14686;SDS011;7431;49.440;11.084;2024-02-28T09:21:19;12.50;;;8.80;;
14686;SDS011;7431;49.440;11.084;2024-02-28T09:23:45;14.80;;;8.90;;
14686;SDS011;7431;49.440;11.084;2024-02-28T09:26:11;14.30;;;8.83;;
14686;SDS011;7431;49.440;11.084;2024-02-28T09:28:38;15.83;;;9.13;;
14686;SDS011;7431;49.440;11.084;2024-02-28T09:31:04;11.57;;;8.30;;
14686;SDS011;7431;49.440;11.084;2024-02-28T09:33:30;12.43;;;7.77;;
14686;SDS011;7431;49.440;11.084;2024-02-28T09:35:56;11.30;;;8.13;;
14686;SDS011;7431;49.440;11.084;2024-02-28T09:38:22;15.53;;;8.47;;
14686;SDS011;7431;49.440;11.084;2024-02-28T09:40:48;12.93;;;8.30;;
14686;SDS011;7431;49.440;11.084;2024-02-28T09:43:30;11.73;;;8.40;;
14686;SDS011;7431;49.440;11.084;2024-02-28T09:45:58;8.57;;;7.17;;
14686;SDS011;7431;49.440;11.084;2024-02-28T09:48:26;10.73;;;6.73;;
14686;SDS011;7431;49.440;11.084;2024-02-28T09:50:54;9.57;;;6.50;;
14686;SDS011;7431;49.440;11.084;2024-02-28T09:53:20;13.03;;;8.03;;
14686;SDS011;7431;49.440;11.084;2024-02-28T09:55:47;13.43;;;8.63;;
14686;SDS011;7431;49.440;11.084;2024-02-28T09:58:13;14.57;;;8.60;;
14686;SDS011;7431;49.440;11.084;2024-02-28T10:00:40;14.00;;;8.80;;
14686;SDS011;7431;49.440;11.084;2024-02-28T10:03:09;13.33;;;8.83;;
14686;SDS011;7431;49.440;11.084;2024-02-28T10:05:35;11.77;;;8.23;;
14686;SDS011;7431;49.440;11.084;2024-02-28T10:08:01;16.33;;;9.17;;
14686;SDS011;7431;49.440;11.084;2024-02-28T10:10:28;14.20;;;9.93;;
14686;SDS011;7431;49.440;11.084;2024-02-28T10:12:54;12.63;;;9.17;;
14686;SDS011;7431;49.440;11.084;2024-02-28T10:15:20;13.50;;;9.13;;
14686;SDS011;7431;49.440;11.084;2024-02-28T10:17:47;15.37;;;8.07;;
14686;SDS011;7431;49.440;11.084;2024-02-28T10:20:13;11.67;;;7.30;;
14686;SDS011;7431;49.440;11.084;2024-02-28T10:22:39;14.10;;;9.90;;
14686;SDS011;7431;49.440;11.084;2024-02-28T10:25:06;15.17;;;9.93;;
14686;SDS011;7431;49.440;11.084;2024-02-28T10:27:35;17.27;;;10.37;;
14686;SDS011;7431;49.440;11.084;2024-02-28T10:30:02;11.97;;;7.77;;
14686;SDS011;7431;49.440;11.084;2024-02-28T10:32:31;13.20;;;8.30;;
14686;SDS011;7431;49.440;11.084;2024-02-28T10:35:00;16.40;;;9.70;;
14686;SDS011;7431;49.440;11.084;2024-02-28T10:37:26;15.00;;;9.93;;
14686;SDS011;7431;49.440;11.084;2024-02-28T10:39:57;11.80;;;8.07;;
14686;SDS011;7431;49.440;11.084;2024-02-28T10:42:26;16.27;;;9.17;;
14686;SDS011;7431;49.440;11.084;2024-02-28T10:44:55;19.37;;;11.27;;
14686;SDS011;7431;49.440;11.084;2024-02-28T10:47:24;16.60;;;9.57;;
14686;SDS011;7431;49.440;11.084;2024-02-28T10:49:50;17.37;;;9.70;;
14686;SDS011;7431;49.440;11.084;2024-02-28T10:52:15;12.63;;;8.73;;
14686;SDS011;7431;49.440;11.084;2024-02-28T10:54:45;9.27;;;6.80;;
14686;SDS011;7431;49.440;11.084;2024-02-28T10:57:13;8.20;;;6.93;;
14686;SDS011;7431;49.440;11.084;2024-02-28T10:59:41;13.40;;;8.37;;
14686;SDS011;7431;49.440;11.084;2024-02-28T11:02:08;11.57;;;8.03;;
14686;SDS011;7431;49.440;11.084;2024-02-28T11:04:34;11.87;;;8.73;;
14686;SDS011;7431;49.440;11.084;2024-02-28T11:07:00;7.83;;;6.27;;
14686;SDS011;7431;49.440;11.084;2024-02-28T11:09:28;11.40;;;7.43;;
14686;SDS011;7431;49.440;11.084;2024-02-28T11:11:57;15.27;;;9.97;;
14686;SDS011;7431;49.440;11.084;2024-02-28T11:14:23;25.10;;;13.00;;
14686;SDS011;7431;49.440;11.084;2024-02-28T11:17:04;17.23;;;10.33;;
14686;SDS011;7431;49.440;11.084;2024-02-28T11:19:31;13.93;;;9.07;;
14686;SDS011;7431;49.440;11.084;2024-02-28T11:21:58;11.80;;;8.33;;
14686;SDS011;7431;49.440;11.084;2024-02-28T11:24:27;11.27;;;7.80;;
14686;SDS011;7431;49.440;11.084;2024-02-28T11:26:55;11.70;;;7.77;;
14686;SDS011;7431;49.440;11.084;2024-02-28T11:29:25;9.37;;;7.43;;
14686;SDS011;7431;49.440;11.084;2024-02-28T11:31:52;11.90;;;8.37;;
14686;SDS011;7431;49.440;11.084;2024-02-28T11:34:18;11.07;;;7.13;;
14686;SDS011;7431;49.440;11.084;2024-02-28T11:36:49;15.53;;;8.07;;
14686;SDS011;7431;49.440;11.084;2024-02-28T11:39:15;10.93;;;7.63;;
14686;SDS011;7431;49.440;11.084;2024-02-28T11:41:42;15.47;;;10.23;;
14686;SDS011;7431;49.440;11.084;2024-02-28T11:44:11;16.20;;;9.40;;
14686;SDS011;7431;49.440;11.084;2024-02-28T11:46:37;15.07;;;9.20;;
14686;SDS011;7431;49.440;11.084;2024-02-28T11:49:04;16.40;;;10.40;;
14686;SDS011;7431;49.440;11.084;2024-02-28T11:51:30;14.67;;;9.90;;
14686;SDS011;7431;49.440;11.084;2024-02-28T11:53:57;16.60;;;9.30;;
14686;SDS011;7431;49.440;11.084;2024-02-28T11:56:23;11.07;;;7.60;;
14686;SDS011;7431;49.440;11.084;2024-02-28T11:58:50;12.30;;;7.67;;
14686;SDS011;7431;49.440;11.084;2024-02-28T12:01:16;10.30;;;7.50;;
14686;SDS011;7431;49.440;11.084;2024-02-28T12:03:50;15.70;;;9.73;;
14686;SDS011;7431;49.440;11.084;2024-02-28T12:06:20;11.93;;;8.27;;
14686;SDS011;7431;49.440;11.084;2024-02-28T12:08:46;11.63;;;7.77;;
14686;SDS011;7431;49.440;11.084;2024-02-28T12:11:12;9.97;;;6.87;;
14686;SDS011;7431;49.440;11.084;2024-02-28T12:13:39;12.27;;;8.73;;
14686;SDS011;7431;49.440;11.084;2024-02-28T12:16:05;13.70;;;8.33;;
14686;SDS011;7431;49.440;11.084;2024-02-28T12:18:31;19.83;;;11.43;;
14686;SDS011;7431;49.440;11.084;2024-02-28T12:20:57;16.43;;;10.03;;
14686;SDS011;7431;49.440;11.084;2024-02-28T12:23:23;16.50;;;9.77;;
14686;SDS011;7431;49.440;11.084;2024-02-28T12:25:49;10.80;;;7.63;;
14686;SDS011;7431;49.440;11.084;2024-02-28T12:28:15;10.87;;;8.13;;
14686;SDS011;7431;49.440;11.084;2024-02-28T12:30:41;13.17;;;9.43;;
14686;SDS011;7431;49.440;11.084;2024-02-28T12:33:07;18.60;;;11.07;;
14686;SDS011;7431;49.440;11.084;2024-02-28T12:35:34;18.27;;;10.00;;
14686;SDS011;7431;49.440;11.084;2024-02-28T12:38:00;10.70;;;7.33;;
14686;SDS011;7431;49.440;11.084;2024-02-28T12:40:26;9.77;;;6.47;;
14686;SDS011;7431;49.440;11.084;2024-02-28T12:42:52;14.67;;;8.83;;
14686;SDS011;7431;49.440;11.084;2024-02-28T12:45:17;13.67;;;9.40;;
14686;SDS011;7431;49.440;11.084;2024-02-28T12:47:43;13.10;;;8.60;;
14686;SDS011;7431;49.440;11.084;2024-02-28T12:50:09;10.93;;;7.43;;
14686;SDS011;7431;49.440;11.084;2024-02-28T12:52:36;10.73;;;6.47;;
14686;SDS011;7431;49.440;11.084;2024-02-28T12:55:02;11.13;;;7.27;;
14686;SDS011;7431;49.440;11.084;2024-02-28T12:57:28;11.43;;;7.17;;
14686;SDS011;7431;49.440;11.084;2024-02-28T12:59:54;13.47;;;8.97;;
14686;SDS011;7431;49.440;11.084;2024-02-28T13:02:21;12.80;;;8.13;;
14686;SDS011;7431;49.440;11.084;2024-02-28T13:04:47;11.70;;;8.07;;
14686;SDS011;7431;49.440;11.084;2024-02-28T13:07:16;15.13;;;9.57;;
14686;SDS011;7431;49.440;11.084;2024-02-28T13:09:46;12.90;;;7.70;;
14686;SDS011;7431;49.440;11.084;2024-02-28T13:12:12;13.27;;;7.63;;
14686;SDS011;7431;49.440;11.084;2024-02-28T13:14:38;9.53;;;6.77;;
14686;SDS011;7431;49.440;11.084;2024-02-28T13:17:04;9.10;;;6.27;;
14686;SDS011;7431;49.440;11.084;2024-02-28T13:19:30;7.90;;;6.07;;
14686;SDS011;7431;49.440;11.084;2024-02-28T13:21:56;7.40;;;5.70;;
14686;SDS011;7431;49.440;11.084;2024-02-28T13:24:22;7.83;;;5.60;;
14686;SDS011;7431;49.440;11.084;2024-02-28T13:26:48;12.07;;;6.57;;
14686;SDS011;7431;49.440;11.084;2024-02-28T13:29:14;8.00;;;5.53;;
14686;SDS011;7431;49.440;11.084;2024-02-28T13:31:40;10.47;;;7.30;;
14686;SDS011;7431;49.440;11.084;2024-02-28T13:34:06;8.60;;;6.00;;
14686;SDS011;7431;49.440;11.084;2024-02-28T13:36:32;10.47;;;6.77;;
14686;SDS011;7431;49.440;11.084;2024-02-28T13:39:01;9.53;;;7.27;;
14686;SDS011;7431;49.440;11.084;2024-02-28T13:41:28;9.57;;;6.10;;
14686;SDS011;7431;49.440;11.084;2024-02-28T13:43:54;7.83;;;5.47;;
14686;SDS011;7431;49.440;11.084;2024-02-28T13:46:20;7.07;;;5.90;;
14686;SDS011;7431;49.440;11.084;2024-02-28T13:48:46;10.00;;;6.90;;
14686;SDS011;7431;49.440;11.084;2024-02-28T13:51:12;7.30;;;5.63;;
14686;SDS011;7431;49.440;11.084;2024-02-28T13:53:40;7.47;;;5.20;;
14686;SDS011;7431;49.440;11.084;2024-02-28T13:56:06;9.83;;;7.60;;
14686;SDS011;7431;49.440;11.084;2024-02-28T13:58:32;9.77;;;6.53;;
14686;SDS011;7431;49.440;11.084;2024-02-28T14:00:58;7.77;;;5.50;;
14686;SDS011;7431;49.440;11.084;2024-02-28T14:03:24;9.83;;;6.37;;
14686;SDS011;7431;49.440;11.084;2024-02-28T14:05:50;9.53;;;5.43;;
14686;SDS011;7431;49.440;11.084;2024-02-28T14:08:17;11.93;;;6.00;;
14686;SDS011;7431;49.440;11.084;2024-02-28T14:10:43;6.67;;;4.90;;
14686;SDS011;7431;49.440;11.084;2024-02-28T14:13:09;7.50;;;5.97;;
14686;SDS011;7431;49.440;11.084;2024-02-28T14:15:37;10.70;;;6.30;;
14686;SDS011;7431;49.440;11.084;2024-02-28T14:18:03;7.97;;;6.20;;
14686;SDS011;7431;49.440;11.084;2024-02-28T14:20:29;9.77;;;6.37;;
14686;SDS011;7431;49.440;11.084;2024-02-28T14:22:55;9.40;;;6.50;;
14686;SDS011;7431;49.440;11.084;2024-02-28T14:25:23;10.60;;;5.93;;